Time,TemperatureF,DewpointF,PressureIn,WindDirection,WindDirectionDegrees,WindSpeedMPH,WindSpeedGustMPH,Humidity,HourlyPrecipIn,Conditions,Clouds,dailyrainin,SoftwareType,DateUTC
2013-06-06 00:03:00,63.6,62.3,27.11,NW,315,0.0,0.0,96,-99.99,,,-99.99,WSDL version 420,2013-06-06 04:03:00,
2013-06-06 00:08:00,63.7,62.4,27.11,WSW,253,0.0,0.9,96,-99.99,,,-99.99,WSDL version 420,2013-06-06 04:08:00,
2013-06-06 00:13:00,63.6,62.3,27.11,West,278,0.0,0.9,96,-99.99,,,-99.99,WSDL version 420,2013-06-06 04:13:00,
2013-06-06 00:18:00,-999.0,-99.9,27.11,West,267,0.1,2.0,-999,-99.99,,,-99.99,WSDL version 420,2013-06-06 04:18:00,
2013-06-06 00:23:00,-999.0,-99.9,27.11,WNW,303,0.0,2.0,-999,-99.99,,,-99.99,WSDL version 420,2013-06-06 04:23:00,
2013-06-06 00:28:00,63.5,62.2,27.11,West,278,0.0,1.3,96,-99.99,,,-99.99,WSDL version 420,2013-06-06 04:28:00,
2013-06-06 00:33:00,63.5,62.2,27.11,West,270,0.0,1.1,96,-99.99,,,-99.99,WSDL version 420,2013-06-06 04:33:00,
2013-06-06 00:38:00,63.4,62.0,27.11,West,270,0.0,1.1,94,-99.99,,,-99.99,WSDL version 420,2013-06-06 04:38:00,
2013-06-06 00:43:00,63.3,61.7,27.11,SW,228,0.0,1.1,94,-99.99,,,-99.99,WSDL version 420,2013-06-06 04:43:00,
2013-06-06 00:48:00,63.3,62.0,27.08,SSW,208,0.0,1.1,96,-99.99,,,-99.99,WSDL version 420,2013-06-06 04:48:00,
2013-06-06 00:53:00,63.3,61.8,27.08,West,273,0.0,0.0,94,-99.99,,,-99.99,WSDL version 420,2013-06-06 04:53:00,
2013-06-06 00:58:00,63.1,61.5,27.08,SW,225,0.0,0.0,94,-99.99,,,-99.99,WSDL version 420,2013-06-06 04:58:00,
2013-06-06 01:03:00,63.1,61.5,27.08,SW,225,0.0,0.0,94,-99.99,,,-99.99,WSDL version 420,2013-06-06 05:03:00,
2013-06-06 01:08:00,63.1,61.5,27.08,SW,225,0.0,0.0,94,-99.99,,,-99.99,WSDL version 420,2013-06-06 05:08:00,
2013-06-06 01:13:00,63.1,61.6,27.08,SE,135,0.0,0.0,94,-99.99,,,-99.99,WSDL version 420,2013-06-06 05:13:00,
2013-06-06 01:18:00,63.0,61.3,27.08,SE,135,0.0,0.0,94,-99.99,,,-99.99,WSDL version 420,2013-06-06 05:18:00,
2013-06-06 01:23:00,63.0,61.3,27.08,SE,135,0.0,0.0,94,-99.99,,,-99.99,WSDL version 420,2013-06-06 05:23:00,
2013-06-06 01:28:00,63.0,61.5,27.08,WNW,293,0.0,0.0,96,-99.99,,,-99.99,WSDL version 420,2013-06-06 05:28:00,
2013-06-06 01:33:00,63.0,61.7,27.08,South,180,0.0,0.0,96,-99.99,,,-99.99,WSDL version 420,2013-06-06 05:33:00,
2013-06-06 01:38:00,63.0,61.7,27.08,South,180,0.0,0.0,96,-99.99,,,-99.99,WSDL version 420,2013-06-06 05:38:00,
2013-06-06 01:43:00,63.0,61.7,27.08,SW,230,0.0,0.0,96,-99.99,,,-99.99,WSDL version 420,2013-06-06 05:43:00,
2013-06-06 01:48:00,63.0,61.7,27.08,NW,315,0.0,0.0,96,-99.99,,,-99.99,WSDL version 420,2013-06-06 05:48:00,
2013-06-06 01:53:00,63.0,61.7,27.08,NW,315,0.0,0.0,96,-99.99,,,-99.99,WSDL version 420,2013-06-06 05:53:00,
2013-06-06 01:58:00,63.0,61.7,27.08,NW,315,0.0,0.0,96,-99.99,,,-99.99,WSDL version 420,2013-06-06 05:58:00,
2013-06-06 02:03:00,62.8,61.6,27.05,NE,53,0.5,1.6,96,-99.99,,,-99.99,WSDL version 420,2013-06-06 06:03:00,
2013-06-06 02:08:00,62.8,61.5,27.05,ENE,73,0.0,1.6,96,-99.99,,,-99.99,WSDL version 420,2013-06-06 06:08:00,
2013-06-06 02:13:00,62.7,61.5,27.05,North,11,0.0,1.1,96,-99.99,,,-99.99,WSDL version 420,2013-06-06 06:13:00,
2013-06-06 02:18:00,62.8,61.6,27.05,SE,135,0.0,0.9,97,-99.99,,,-99.99,WSDL version 420,2013-06-06 06:18:00,
2013-06-06 02:23:00,62.8,61.8,27.05,SSE,163,0.0,0.0,97,-99.99,,,-99.99,WSDL version 420,2013-06-06 06:23:00,
2013-06-06 02:28:00,62.8,61.6,27.05,ENE,62,0.0,0.0,96,-99.99,,,-99.99,WSDL version 420,2013-06-06 06:28:00,
2013-06-06 02:33:00,62.9,61.9,27.05,South,172,0.0,0.0,97,-99.99,,,-99.99,WSDL version 420,2013-06-06 06:33:00,
2013-06-06 02:38:00,63.0,62.0,27.05,NE,56,0.0,1.6,97,-99.99,,,-99.99,WSDL version 420,2013-06-06 06:38:00,
2013-06-06 02:43:00,63.0,62.0,27.05,South,183,0.0,1.6,97,-99.99,,,-99.99,WSDL version 420,2013-06-06 06:43:00,
2013-06-06 02:48:00,63.0,62.1,27.05,North,3,0.0,0.0,97,-99.99,,,-99.99,WSDL version 420,2013-06-06 06:48:00,
2013-06-06 02:53:00,63.1,62.2,27.05,WNW,283,0.0,0.0,97,-99.99,,,-99.99,WSDL version 420,2013-06-06 06:53:00,
2013-06-06 02:58:00,63.1,62.2,27.05,SSW,203,0.0,0.0,97,-99.99,,,-99.99,WSDL version 420,2013-06-06 06:58:00,
2013-06-06 03:03:00,63.2,62.4,27.02,NNE,14,0.6,2.2,98,-99.99,,,-99.99,WSDL version 420,2013-06-06 07:03:00,
2013-06-06 03:08:00,63.2,62.6,27.02,West,260,0.0,2.7,98,-99.99,,,-99.99,WSDL version 420,2013-06-06 07:08:00,
2013-06-06 03:13:00,63.3,62.6,27.02,West,268,1.0,3.4,98,-99.99,,,-99.99,WSDL version 420,2013-06-06 07:13:00,
2013-06-06 03:18:00,63.3,62.6,27.02,WNW,293,0.3,3.4,98,-99.99,,,-99.99,WSDL version 420,2013-06-06 07:18:00,
2013-06-06 03:23:00,63.3,62.7,27.02,NNW,343,0.0,1.3,98,-99.99,,,-99.99,WSDL version 420,2013-06-06 07:23:00,
2013-06-06 03:28:00,63.3,62.7,27.02,SW,228,0.0,3.1,98,-99.99,,,-99.99,WSDL version 420,2013-06-06 07:28:00,
2013-06-06 03:33:00,63.3,62.7,27.05,NNW,348,0.0,3.1,98,-99.99,,,-99.99,WSDL version 420,2013-06-06 07:33:00,
2013-06-06 03:38:00,63.3,62.7,27.05,NNW,335,1.5,3.1,98,-99.99,,,-99.99,WSDL version 420,2013-06-06 07:38:00,
2013-06-06 03:43:00,63.3,62.6,27.05,ENE,65,0.2,3.1,97,-99.99,,,-99.99,WSDL version 420,2013-06-06 07:43:00,
2013-06-06 03:48:00,63.3,62.4,27.05,ESE,104,0.0,1.6,97,-99.99,,,-99.99,WSDL version 420,2013-06-06 07:48:00,
2013-06-06 03:53:00,63.3,62.4,27.05,WNW,293,0.0,1.6,97,-99.99,,,-99.99,WSDL version 420,2013-06-06 07:53:00,
2013-06-06 03:58:00,63.2,62.2,27.05,East,90,0.0,1.6,97,-99.99,,,-99.99,WSDL version 420,2013-06-06 07:58:00,
2013-06-06 04:03:00,63.1,62.2,27.02,East,90,0.0,0.0,97,-99.99,,,-99.99,WSDL version 420,2013-06-06 08:03:00,
2013-06-06 04:08:00,63.3,62.5,27.02,SSE,158,0.0,0.0,98,-99.99,,,-99.99,WSDL version 420,2013-06-06 08:08:00,
2013-06-06 04:13:00,63.2,62.5,27.02,ESE,113,0.0,0.0,98,-99.99,,,-99.99,WSDL version 420,2013-06-06 08:13:00,
2013-06-06 04:18:00,63.3,62.6,27.02,NW,315,0.0,0.0,98,-99.99,,,-99.99,WSDL version 420,2013-06-06 08:18:00,
2013-06-06 04:23:00,63.1,62.5,27.02,NW,315,0.0,0.0,98,-99.99,,,-99.99,WSDL version 420,2013-06-06 08:23:00,
2013-06-06 04:28:00,63.1,62.5,27.02,NE,45,0.0,0.0,98,-99.99,,,-99.99,WSDL version 420,2013-06-06 08:28:00,
2013-06-06 04:33:00,63.1,62.5,27.02,WNW,293,0.0,0.0,98,-99.99,,,-99.99,WSDL version 420,2013-06-06 08:33:00,
2013-06-06 04:38:00,63.1,62.5,27.02,WNW,293,0.0,0.0,98,-99.99,,,-99.99,WSDL version 420,2013-06-06 08:38:00,
2013-06-06 04:43:00,63.1,62.5,27.02,WNW,293,0.0,0.0,98,-99.99,,,-99.99,WSDL version 420,2013-06-06 08:43:00,
2013-06-06 04:48:00,63.1,62.5,27.02,North,6,0.0,0.0,98,-99.99,,,-99.99,WSDL version 420,2013-06-06 08:48:00,
2013-06-06 04:53:00,63.1,62.5,27.02,NW,309,0.0,0.0,98,-99.99,,,-99.99,WSDL version 420,2013-06-06 08:53:00,
2013-06-06 04:58:00,63.1,62.5,27.02,West,270,0.0,0.0,98,-99.99,,,-99.99,WSDL version 420,2013-06-06 08:58:00,
2013-06-06 05:03:00,63.2,62.5,27.02,West,270,0.0,0.0,98,-99.99,,,-99.99,WSDL version 420,2013-06-06 09:03:00,
2013-06-06 05:08:00,63.2,62.5,27.02,West,270,0.0,0.0,98,-99.99,,,-99.99,WSDL version 420,2013-06-06 09:08:00,
2013-06-06 05:13:00,63.1,62.5,27.02,West,270,0.0,0.0,98,-99.99,,,-99.99,WSDL version 420,2013-06-06 09:13:00,
2013-06-06 05:18:00,-999.0,-99.9,27.02,West,270,0.0,0.0,-999,-99.99,,,-99.99,WSDL version 420,2013-06-06 09:18:00,
2013-06-06 05:23:00,-999.0,-99.9,27.02,West,270,0.0,0.0,-999,-99.99,,,-99.99,WSDL version 420,2013-06-06 09:23:00,
2013-06-06 05:28:00,63.0,62.0,27.02,NNW,330,0.0,0.0,97,-99.99,,,-99.99,WSDL version 420,2013-06-06 09:28:00,
2013-06-06 05:33:00,63.0,62.0,27.02,East,90,0.0,0.0,97,-99.99,,,-99.99,WSDL version 420,2013-06-06 09:33:00,
2013-06-06 05:38:00,63.0,62.1,27.02,East,90,0.0,0.0,98,-99.99,,,-99.99,WSDL version 420,2013-06-06 09:38:00,
2013-06-06 05:43:00,63.0,62.1,27.02,East,90,0.0,0.0,97,-99.99,,,-99.99,WSDL version 420,2013-06-06 09:43:00,
2013-06-06 05:48:00,63.0,62.3,27.02,East,90,0.0,0.0,98,-99.99,,,-99.99,WSDL version 420,2013-06-06 09:48:00,
2013-06-06 05:53:00,63.0,62.3,27.02,East,90,0.0,0.0,98,-99.99,,,-99.99,WSDL version 420,2013-06-06 09:53:00,
2013-06-06 05:58:00,63.0,62.3,27.02,East,90,0.0,0.0,98,-99.99,,,-99.99,WSDL version 420,2013-06-06 09:58:00,
2013-06-06 06:03:00,62.9,62.3,27.02,SE,135,0.0,0.0,98,-99.99,,,-99.99,WSDL version 420,2013-06-06 10:03:00,
2013-06-06 06:08:00,63.0,62.3,27.02,SE,135,0.0,0.0,98,-99.99,,,-99.99,WSDL version 420,2013-06-06 10:08:00,
2013-06-06 06:13:00,63.0,62.3,27.02,SE,135,0.0,0.0,98,-99.99,,,-99.99,WSDL version 420,2013-06-06 10:13:00,
2013-06-06 06:18:00,-999.0,-99.9,27.02,SE,135,0.0,0.0,-999,-99.99,,,-99.99,WSDL version 420,2013-06-06 10:18:00,
2013-06-06 06:23:00,-999.0,-99.9,27.02,SE,135,0.0,0.0,-999,-99.99,,,-99.99,WSDL version 420,2013-06-06 10:23:00,
2013-06-06 06:28:00,63.0,62.3,27.02,SE,135,0.0,0.0,98,-99.99,,,-99.99,WSDL version 420,2013-06-06 10:28:00,
2013-06-06 06:33:00,62.9,62.3,27.02,SE,135,0.0,0.0,98,-99.99,,,-99.99,WSDL version 420,2013-06-06 10:33:00,
2013-06-06 06:38:00,-999.0,-99.9,27.02,SE,135,0.0,0.0,-999,0.00,,,0.00,WSDL version 420,2013-06-06 10:38:00,
2013-06-06 06:43:00,-999.0,-99.9,27.02,SE,135,0.0,0.0,-999,0.00,,,0.00,WSDL version 420,2013-06-06 10:43:00,
2013-06-06 06:48:00,-999.0,-99.9,27.02,SE,135,0.0,0.0,-999,0.00,,,0.00,WSDL version 420,2013-06-06 10:48:00,
2013-06-06 06:53:00,-999.0,-99.9,27.02,SE,135,0.0,0.0,-999,0.00,,,0.00,WSDL version 420,2013-06-06 10:53:00,
2013-06-06 06:58:00,-999.0,-99.9,27.02,SE,135,0.0,0.0,-999,0.00,,,0.00,WSDL version 420,2013-06-06 10:58:00,
2013-06-06 07:03:00,-999.0,-99.9,27.02,SE,135,0.0,0.0,-999,0.00,,,0.00,WSDL version 420,2013-06-06 11:03:00,
2013-06-06 07:08:00,-999.0,-99.9,27.02,NE,45,0.0,0.0,-999,0.00,,,0.00,WSDL version 420,2013-06-06 11:08:00,
2013-06-06 07:13:00,-999.0,-99.9,27.02,NE,45,0.0,0.0,-999,0.00,,,0.00,WSDL version 420,2013-06-06 11:13:00,
2013-06-06 07:18:00,-999.0,-99.9,27.02,WNW,293,0.0,0.0,-999,0.00,,,0.00,WSDL version 420,2013-06-06 11:18:00,
2013-06-06 07:23:00,-999.0,-99.9,27.02,NNW,343,0.0,0.0,-999,0.00,,,0.00,WSDL version 420,2013-06-06 11:23:00,
2013-06-06 07:28:00,-999.0,-99.9,27.02,SSW,203,0.0,0.0,-999,0.00,,,0.00,WSDL version 420,2013-06-06 11:28:00,
2013-06-06 07:33:00,-999.0,-99.9,27.02,South,191,0.0,0.0,-999,0.00,,,0.00,WSDL version 420,2013-06-06 11:33:00,
2013-06-06 07:38:00,-999.0,-99.9,27.02,ESE,113,0.0,0.0,-999,0.00,,,0.00,WSDL version 420,2013-06-06 11:38:00,
2013-06-06 07:43:00,-999.0,-99.9,27.02,ESE,113,0.0,0.0,-999,0.00,,,0.00,WSDL version 420,2013-06-06 11:43:00,
2013-06-06 07:48:00,-999.0,-99.9,27.02,ESE,113,0.0,0.0,-999,0.00,,,0.00,WSDL version 420,2013-06-06 11:48:00,
2013-06-06 07:53:00,-999.0,-99.9,27.02,ESE,113,0.0,0.0,-999,0.00,,,0.00,WSDL version 420,2013-06-06 11:53:00,
2013-06-06 07:58:00,-999.0,-99.9,27.02,ESE,113,0.0,0.0,-999,0.00,,,0.00,WSDL version 420,2013-06-06 11:58:00,
2013-06-06 08:03:00,-999.0,-99.9,27.02,ESE,113,0.0,0.0,-999,0.00,,,0.00,WSDL version 420,2013-06-06 12:03:00,
2013-06-06 08:08:00,-999.0,-99.9,27.02,ESE,113,0.0,0.0,-999,0.00,,,0.00,WSDL version 420,2013-06-06 12:08:00,
2013-06-06 08:13:00,-999.0,-99.9,27.02,ESE,113,0.0,0.0,-999,0.00,,,0.00,WSDL version 420,2013-06-06 12:13:00,
2013-06-06 08:18:00,-999.0,-99.9,27.02,ESE,113,0.0,0.0,-999,0.00,,,0.00,WSDL version 420,2013-06-06 12:18:00,
2013-06-06 08:23:00,-999.0,-99.9,27.02,ESE,113,0.0,0.0,-999,0.00,,,0.00,WSDL version 420,2013-06-06 12:23:00,
2013-06-06 08:28:00,-999.0,-99.9,27.02,ESE,113,0.0,0.0,-999,0.00,,,0.00,WSDL version 420,2013-06-06 12:28:00,
2013-06-06 08:33:00,-999.0,-99.9,27.02,ESE,113,0.0,0.0,-999,0.00,,,0.00,WSDL version 420,2013-06-06 12:33:00,
2013-06-06 08:38:00,-999.0,-99.9,26.99,ESE,118,0.0,0.0,-999,0.00,,,0.00,WSDL version 420,2013-06-06 12:38:00,
2013-06-06 08:43:00,-999.0,-99.9,26.99,SSE,158,0.0,0.0,-999,0.00,,,0.00,WSDL version 420,2013-06-06 12:43:00,
2013-06-06 08:48:00,-999.0,-99.9,26.99,SW,218,0.0,0.0,-999,0.00,,,0.00,WSDL version 420,2013-06-06 12:48:00,
2013-06-06 08:53:00,-999.0,-99.9,26.99,East,90,0.0,0.0,-999,0.00,,,0.00,WSDL version 420,2013-06-06 12:53:00,
2013-06-06 08:58:00,-999.0,-99.9,26.99,ENE,68,0.0,0.0,-999,0.00,,,0.00,WSDL version 420,2013-06-06 12:58:00,
2013-06-06 09:03:00,-999.0,-99.9,26.99,SSW,206,0.0,0.0,-999,0.00,,,0.00,WSDL version 420,2013-06-06 13:03:00,
2013-06-06 09:08:00,-999.0,-99.9,26.99,WSW,240,0.0,0.0,-999,0.00,,,0.00,WSDL version 420,2013-06-06 13:08:00,
2013-06-06 09:13:00,-999.0,-99.9,26.99,ESE,104,0.8,1.3,-999,0.00,,,0.00,WSDL version 420,2013-06-06 13:13:00,
2013-06-06 09:18:00,-999.0,-99.9,26.99,West,259,0.0,1.3,-999,0.00,,,0.00,WSDL version 420,2013-06-06 13:18:00,
2013-06-06 09:23:00,-999.0,-99.9,27.02,NNW,330,0.0,1.1,-999,0.00,,,0.00,WSDL version 420,2013-06-06 13:23:00,
2013-06-06 09:28:00,-999.0,-99.9,27.02,West,270,0.0,1.1,-999,0.00,,,0.00,WSDL version 420,2013-06-06 13:28:00,
2013-06-06 09:33:00,-999.0,-99.9,27.02,WNW,293,0.0,0.0,-999,0.00,,,0.00,WSDL version 420,2013-06-06 13:33:00,
2013-06-06 09:38:00,-999.0,-99.9,26.99,NE,45,0.0,0.0,-999,0.00,,,0.00,WSDL version 420,2013-06-06 13:38:00,
2013-06-06 09:43:00,-999.0,-99.9,26.99,NNE,14,0.0,0.0,-999,0.00,,,0.00,WSDL version 420,2013-06-06 13:43:00,
2013-06-06 09:48:00,-999.0,-99.9,26.99,East,79,0.0,0.0,-999,0.00,,,0.00,WSDL version 420,2013-06-06 13:48:00,
2013-06-06 09:53:00,-999.0,-99.9,27.02,SE,143,0.0,0.0,-999,0.00,,,0.00,WSDL version 420,2013-06-06 13:53:00,
2013-06-06 09:58:00,-999.0,-99.9,27.02,South,177,0.0,0.0,-999,0.00,,,0.00,WSDL version 420,2013-06-06 13:58:00,
2013-06-06 10:03:00,-999.0,-99.9,27.02,North,3,0.0,1.6,-999,0.00,,,0.00,WSDL version 420,2013-06-06 14:03:00,
2013-06-06 10:08:00,-999.0,-99.9,27.02,NW,315,0.0,1.6,-999,0.00,,,0.00,WSDL version 420,2013-06-06 14:08:00,
2013-06-06 10:13:00,-999.0,-99.9,27.02,South,174,0.0,0.0,-999,0.00,,,0.00,WSDL version 420,2013-06-06 14:13:00,
2013-06-06 10:18:00,-999.0,-99.9,27.02,WNW,293,0.0,0.0,-999,0.00,,,0.00,WSDL version 420,2013-06-06 14:18:00,
2013-06-06 10:23:00,-999.0,-99.9,27.02,WNW,284,0.0,0.0,-999,0.00,,,0.00,WSDL version 420,2013-06-06 14:23:00,
2013-06-06 10:28:00,-999.0,-99.9,27.02,SSW,205,0.0,0.0,-999,0.00,,,0.00,WSDL version 420,2013-06-06 14:28:00,
2013-06-06 10:33:00,-999.0,-99.9,27.02,West,273,0.1,2.5,-999,0.00,,,0.00,WSDL version 420,2013-06-06 14:33:00,
2013-06-06 10:38:00,-999.0,-99.9,27.02,NW,315,0.0,2.5,-999,0.00,,,0.00,WSDL version 420,2013-06-06 14:38:00,
2013-06-06 10:43:00,-999.0,-99.9,27.02,WNW,287,0.0,2.0,-999,0.00,,,0.00,WSDL version 420,2013-06-06 14:43:00,
2013-06-06 10:48:00,-999.0,-99.9,27.02,NNW,329,0.0,2.0,-999,0.00,,,0.00,WSDL version 420,2013-06-06 14:48:00,
2013-06-06 10:53:00,-999.0,-99.9,26.99,SE,135,0.0,0.0,-999,0.00,,,0.00,WSDL version 420,2013-06-06 14:53:00,
2013-06-06 10:58:00,-999.0,-99.9,26.99,SSE,158,0.0,2.2,-999,0.00,,,0.00,WSDL version 420,2013-06-06 14:58:00,
2013-06-06 11:03:00,-999.0,-99.9,26.99,NW,318,0.0,2.2,-999,0.00,,,0.00,WSDL version 420,2013-06-06 15:03:00,
2013-06-06 11:08:00,-999.0,-99.9,27.02,NW,315,0.0,2.0,-999,0.00,,,0.00,WSDL version 420,2013-06-06 15:08:00,
2013-06-06 11:13:00,-999.0,-99.9,27.02,South,180,0.0,0.0,-999,0.00,,,0.00,WSDL version 420,2013-06-06 15:13:00,
2013-06-06 11:18:00,-999.0,-99.9,27.02,West,275,0.0,2.7,-999,0.00,,,0.00,WSDL version 420,2013-06-06 15:18:00,
2013-06-06 11:23:00,-999.0,-99.9,27.02,SW,228,0.0,2.7,-999,0.00,,,0.00,WSDL version 420,2013-06-06 15:23:00,
2013-06-06 11:28:00,-999.0,-99.9,27.02,West,280,0.0,0.0,-999,0.00,,,0.00,WSDL version 420,2013-06-06 15:28:00,
2013-06-06 11:33:00,-999.0,-99.9,27.02,SSW,212,0.0,0.0,-999,0.00,,,0.00,WSDL version 420,2013-06-06 15:33:00,
2013-06-06 11:38:00,-999.0,-99.9,27.02,NNW,346,0.0,0.0,-999,0.00,,,0.00,WSDL version 420,2013-06-06 15:38:00,
2013-06-06 11:43:00,-999.0,-99.9,27.02,SW,225,0.0,0.0,-999,0.00,,,0.00,WSDL version 420,2013-06-06 15:43:00,
2013-06-06 11:48:00,-999.0,-99.9,27.02,North,3,0.0,0.0,-999,0.00,,,0.00,WSDL version 420,2013-06-06 15:48:00,
2013-06-06 11:53:00,-999.0,-99.9,27.02,West,265,0.0,0.0,-999,0.00,,,0.00,WSDL version 420,2013-06-06 15:53:00,
2013-06-06 11:58:00,-999.0,-99.9,27.02,SW,222,0.1,2.7,-999,0.00,,,0.00,WSDL version 420,2013-06-06 15:58:00,
2013-06-06 12:03:00,-999.0,-99.9,27.02,South,190,0.3,2.7,-999,0.00,,,0.00,WSDL version 420,2013-06-06 16:03:00,
2013-06-06 12:08:00,-999.0,-99.9,27.02,NNE,25,0.0,2.5,-999,0.00,,,0.00,WSDL version 420,2013-06-06 16:08:00,
2013-06-06 12:13:00,-999.0,-99.9,27.02,NE,55,0.0,1.6,-999,0.00,,,0.00,WSDL version 420,2013-06-06 16:13:00,
2013-06-06 12:18:00,-999.0,-99.9,27.02,East,90,0.0,0.0,-999,0.00,,,0.00,WSDL version 420,2013-06-06 16:18:00,
2013-06-06 12:23:00,-999.0,-99.9,27.02,South,180,0.0,0.9,-999,0.00,,,0.00,WSDL version 420,2013-06-06 16:23:00,
2013-06-06 12:28:00,-999.0,-99.9,27.02,WNW,285,0.0,0.9,-999,0.00,,,0.00,WSDL version 420,2013-06-06 16:28:00,
2013-06-06 12:33:00,-999.0,-99.9,27.02,SW,217,0.0,0.0,-999,0.00,,,0.00,WSDL version 420,2013-06-06 16:33:00,
2013-06-06 12:38:00,-999.0,-99.9,26.99,WSW,253,0.0,0.0,-999,0.00,,,0.00,WSDL version 420,2013-06-06 16:38:00,
2013-06-06 12:43:00,-999.0,-99.9,26.99,SE,143,0.3,1.3,-999,0.00,,,0.00,WSDL version 420,2013-06-06 16:43:00,
2013-06-06 12:48:00,-999.0,-99.9,26.99,West,262,0.0,1.3,-999,0.00,,,0.00,WSDL version 420,2013-06-06 16:48:00,
2013-06-06 12:53:00,-999.0,-99.9,27.02,South,170,0.0,1.6,-999,0.00,,,0.00,WSDL version 420,2013-06-06 16:53:00,
2013-06-06 12:58:00,-999.0,-99.9,27.02,ENE,70,0.0,1.6,-999,0.00,,,0.00,WSDL version 420,2013-06-06 16:58:00,
2013-06-06 13:03:00,-999.0,-99.9,27.02,North,5,0.0,0.0,-999,0.00,,,0.00,WSDL version 420,2013-06-06 17:03:00,
2013-06-06 13:08:00,-999.0,-99.9,26.99,ESE,113,0.0,0.0,-999,0.00,,,0.00,WSDL version 420,2013-06-06 17:08:00,
2013-06-06 13:13:00,-999.0,-99.9,26.99,NE,53,0.0,0.0,-999,0.00,,,0.00,WSDL version 420,2013-06-06 17:13:00,
2013-06-06 13:18:00,-999.0,-99.9,26.99,SE,135,0.0,0.0,-999,0.00,,,0.00,WSDL version 420,2013-06-06 17:18:00,
2013-06-06 13:23:00,-999.0,-99.9,26.99,ESE,103,0.0,2.2,-999,0.00,,,0.00,WSDL version 420,2013-06-06 17:23:00,
2013-06-06 13:28:00,-999.0,-99.9,26.99,WNW,296,0.0,2.2,-999,0.00,,,0.00,WSDL version 420,2013-06-06 17:28:00,
2013-06-06 13:33:00,-999.0,-99.9,26.99,WSW,253,0.0,0.0,-999,0.00,,,0.00,WSDL version 420,2013-06-06 17:33:00,
2013-06-06 13:38:00,-999.0,-99.9,26.99,West,270,0.0,0.0,-999,0.00,,,0.00,WSDL version 420,2013-06-06 17:38:00,
2013-06-06 13:43:00,-999.0,-99.9,26.99,WNW,293,0.0,0.0,-999,0.00,,,0.00,WSDL version 420,2013-06-06 17:43:00,
2013-06-06 13:48:00,-999.0,-99.9,26.99,NNE,28,0.0,0.0,-999,0.00,,,0.00,WSDL version 420,2013-06-06 17:48:00,
2013-06-06 13:53:00,-999.0,-99.9,26.99,WSW,248,0.0,0.0,-999,0.00,,,0.00,WSDL version 420,2013-06-06 17:53:00,
2013-06-06 13:58:00,-999.0,-99.9,26.99,NNW,338,0.0,0.0,-999,0.00,,,0.00,WSDL version 420,2013-06-06 17:58:00,
2013-06-06 14:03:00,-999.0,-99.9,26.99,WSW,251,0.0,0.0,-999,0.00,,,0.00,WSDL version 420,2013-06-06 18:03:00,
2013-06-06 14:08:00,-999.0,-99.9,26.96,WSW,242,0.0,1.1,-999,0.00,,,0.00,WSDL version 420,2013-06-06 18:08:00,
2013-06-06 14:13:00,-999.0,-99.9,26.96,SSE,155,0.2,2.5,-999,0.00,,,0.00,WSDL version 420,2013-06-06 18:13:00,
2013-06-06 14:18:00,-999.0,-99.9,26.96,ENE,59,0.0,2.5,-999,0.00,,,0.00,WSDL version 420,2013-06-06 18:18:00,
2013-06-06 14:23:00,-999.0,-99.9,26.96,ESE,107,0.6,2.5,-999,0.00,,,0.00,WSDL version 420,2013-06-06 18:23:00,
2013-06-06 14:28:00,-999.0,-99.9,26.96,West,281,0.4,2.5,-999,0.00,,,0.00,WSDL version 420,2013-06-06 18:28:00,
2013-06-06 14:33:00,-999.0,-99.9,26.96,WSW,258,0.2,2.7,-999,0.00,,,0.00,WSDL version 420,2013-06-06 18:33:00,
2013-06-06 14:38:00,-999.0,-99.9,26.96,SW,236,0.0,2.7,-999,0.00,,,0.00,WSDL version 420,2013-06-06 18:38:00,
2013-06-06 14:43:00,-999.0,-99.9,26.96,WSW,242,0.3,2.7,-999,0.00,,,0.00,WSDL version 420,2013-06-06 18:43:00,
2013-06-06 14:48:00,-999.0,-99.9,26.96,NNE,18,0.3,2.9,-999,0.00,,,0.00,WSDL version 420,2013-06-06 18:48:00,
2013-06-06 14:53:00,-999.0,-99.9,26.96,ENE,65,0.0,2.9,-999,0.00,,,0.00,WSDL version 420,2013-06-06 18:53:00,
2013-06-06 14:58:00,-999.0,-99.9,26.96,NE,48,0.0,2.9,-999,0.00,,,0.00,WSDL version 420,2013-06-06 18:58:00,
2013-06-06 15:03:00,-999.0,-99.9,26.96,NNE,26,1.6,4.3,-999,0.00,,,0.00,WSDL version 420,2013-06-06 19:03:00,
2013-06-06 15:08:00,-999.0,-99.9,26.96,WNW,293,2.3,4.3,-999,0.00,,,0.00,WSDL version 420,2013-06-06 19:08:00,
2013-06-06 15:13:00,-999.0,-99.9,26.96,NNW,343,1.3,4.3,-999,0.00,,,0.00,WSDL version 420,2013-06-06 19:13:00,
2013-06-06 15:18:00,-999.0,-99.9,26.96,NW,325,1.2,3.6,-999,0.00,,,0.00,WSDL version 420,2013-06-06 19:18:00,
2013-06-06 15:23:00,-999.0,-99.9,26.96,NNE,25,1.0,3.6,-999,0.00,,,0.00,WSDL version 420,2013-06-06 19:23:00,
2013-06-06 15:28:00,-999.0,-99.9,26.96,WNW,286,0.0,3.4,-999,0.00,,,0.00,WSDL version 420,2013-06-06 19:28:00,
2013-06-06 15:35:00,-999.0,-99.9,26.96,NE,50,1.1,4.3,-999,0.00,,,0.00,WSDL version 420,2013-06-06 19:35:00,
2013-06-06 15:40:00,-999.0,-99.9,26.96,NNW,332,1.3,4.3,-999,0.00,,,0.00,WSDL version 420,2013-06-06 19:40:00,
2013-06-06 15:45:00,-999.0,-99.9,26.96,East,96,1.1,3.6,-999,0.00,,,0.00,WSDL version 420,2013-06-06 19:45:00,
2013-06-06 15:50:00,-999.0,-99.9,26.96,North,3,0.7,3.6,-999,0.00,,,0.00,WSDL version 420,2013-06-06 19:50:00,
2013-06-06 15:55:00,-999.0,-99.9,26.96,NW,308,0.0,2.7,-999,0.00,,,0.00,WSDL version 420,2013-06-06 19:55:00,
2013-06-06 16:00:00,-999.0,-99.9,26.96,North,5,1.2,3.4,-999,0.00,,,0.00,WSDL version 420,2013-06-06 20:00:00,
2013-06-06 16:05:00,-999.0,-99.9,26.96,NW,318,0.2,3.4,-999,0.00,,,0.00,WSDL version 420,2013-06-06 20:05:00,
2013-06-06 16:10:00,-999.0,-99.9,26.96,WNW,288,0.0,3.1,-999,0.00,,,0.00,WSDL version 420,2013-06-06 20:10:00,
2013-06-06 16:15:00,-999.0,-99.9,26.96,WNW,301,0.0,3.1,-999,0.00,,,0.00,WSDL version 420,2013-06-06 20:15:00,
2013-06-06 16:20:00,-999.0,-99.9,26.96,WNW,293,1.2,2.9,-999,0.00,,,0.00,WSDL version 420,2013-06-06 20:20:00,
2013-06-06 16:25:00,-999.0,-99.9,26.96,ESE,118,0.1,2.9,-999,0.00,,,0.00,WSDL version 420,2013-06-06 20:25:00,
2013-06-06 16:30:00,-999.0,-99.9,26.96,SE,135,0.4,2.2,-999,0.00,,,0.00,WSDL version 420,2013-06-06 20:30:00,
2013-06-06 16:35:00,-999.0,-99.9,26.96,SSE,158,0.0,2.2,-999,0.00,,,0.00,WSDL version 420,2013-06-06 20:35:00,
2013-06-06 16:40:00,-999.0,-99.9,26.96,NNW,338,0.0,1.1,-999,0.00,,,0.00,WSDL version 420,2013-06-06 20:40:00,
2013-06-06 16:45:00,-999.0,-99.9,26.96,West,275,0.7,2.9,-999,0.00,,,0.00,WSDL version 420,2013-06-06 20:45:00,
2013-06-06 16:50:00,-999.0,-99.9,26.96,NW,307,0.3,4.9,-999,0.00,,,0.00,WSDL version 420,2013-06-06 20:50:00,
2013-06-06 16:55:00,-999.0,-99.9,26.96,NW,323,2.8,4.9,-999,0.00,,,0.00,WSDL version 420,2013-06-06 20:55:00,
2013-06-06 17:00:00,-999.0,-99.9,26.96,NNW,340,2.1,4.7,-999,0.00,,,0.00,WSDL version 420,2013-06-06 21:00:00,
2013-06-06 17:05:00,-999.0,-99.9,26.96,NW,318,2.2,4.7,-999,0.00,,,0.00,WSDL version 420,2013-06-06 21:05:00,
2013-06-06 17:10:00,-999.0,-99.9,26.96,NNW,328,1.2,2.9,-999,0.00,,,0.00,WSDL version 420,2013-06-06 21:10:00,
2013-06-06 17:15:00,-999.0,-99.9,26.96,West,270,0.0,2.5,-999,0.00,,,0.00,WSDL version 420,2013-06-06 21:15:00,
2013-06-06 17:20:00,-999.0,-99.9,26.96,WNW,301,1.0,2.9,-999,0.00,,,0.00,WSDL version 420,2013-06-06 21:20:00,
2013-06-06 17:25:00,-999.0,-99.9,26.96,WNW,298,0.0,2.9,-999,0.00,,,0.00,WSDL version 420,2013-06-06 21:25:00,
2013-06-06 17:30:00,-999.0,-99.9,26.96,East,82,0.9,2.9,-999,0.00,,,0.00,WSDL version 420,2013-06-06 21:30:00,
2013-06-06 17:35:00,-999.0,-99.9,26.96,NW,315,1.0,2.9,-999,0.00,,,0.00,WSDL version 420,2013-06-06 21:35:00,
2013-06-06 17:40:00,-999.0,-99.9,26.93,NNE,15,0.0,2.0,-999,0.00,,,0.00,WSDL version 420,2013-06-06 21:40:00,
2013-06-06 17:45:00,-999.0,-99.9,26.93,NW,315,0.8,3.1,-999,0.00,,,0.00,WSDL version 420,2013-06-06 21:45:00,
2013-06-06 17:50:00,-999.0,-99.9,26.93,North,354,2.0,3.8,-999,0.00,,,0.00,WSDL version 420,2013-06-06 21:50:00,
2013-06-06 17:55:00,-999.0,-99.9,26.93,NW,323,1.8,3.8,-999,0.00,,,0.00,WSDL version 420,2013-06-06 21:55:00,
2013-06-06 18:00:00,-999.0,-99.9,26.93,NE,39,1.0,4.0,-999,0.00,,,0.00,WSDL version 420,2013-06-06 22:00:00,
2013-06-06 18:05:00,-999.0,-99.9,26.93,North,3,0.0,4.0,-999,0.00,,,0.00,WSDL version 420,2013-06-06 22:05:00,
2013-06-06 18:10:00,-999.0,-99.9,26.93,NW,312,0.9,2.9,-999,0.00,,,0.00,WSDL version 420,2013-06-06 22:10:00,
2013-06-06 18:15:00,-999.0,-99.9,26.93,North,358,1.0,4.0,-999,0.00,,,0.00,WSDL version 420,2013-06-06 22:15:00,
2013-06-06 18:20:00,-999.0,-99.9,26.93,NW,308,0.5,4.0,-999,0.00,,,0.00,WSDL version 420,2013-06-06 22:20:00,
2013-06-06 18:25:00,-999.0,-99.9,26.93,NW,309,0.1,2.7,-999,0.00,,,0.00,WSDL version 420,2013-06-06 22:25:00,
2013-06-06 18:30:00,-999.0,-99.9,26.93,NW,326,0.1,2.9,-999,0.00,,,0.00,WSDL version 420,2013-06-06 22:30:00,
2013-06-06 18:35:00,-999.0,-99.9,26.93,NE,39,0.0,2.9,-999,0.00,,,0.00,WSDL version 420,2013-06-06 22:35:00,
2013-06-06 18:40:00,-999.0,-99.9,26.93,WNW,288,0.0,1.1,-999,0.00,,,0.00,WSDL version 420,2013-06-06 22:40:00,
2013-06-06 18:45:00,-999.0,-99.9,26.93,NNW,335,0.1,2.0,-999,0.00,,,0.00,WSDL version 420,2013-06-06 22:45:00,
2013-06-06 18:50:00,-999.0,-99.9,26.93,NNW,333,0.2,2.7,-999,0.00,,,0.00,WSDL version 420,2013-06-06 22:50:00,
2013-06-06 18:55:00,-999.0,-99.9,26.93,NE,38,2.3,3.1,-999,0.00,,,0.00,WSDL version 420,2013-06-06 22:55:00,
2013-06-06 19:00:00,-999.0,-99.9,26.93,NNE,19,0.3,3.1,-999,0.00,,,0.00,WSDL version 420,2013-06-06 23:00:00,
2013-06-06 19:05:00,-999.0,-99.9,26.93,NNW,340,0.3,2.7,-999,0.00,,,0.00,WSDL version 420,2013-06-06 23:05:00,
2013-06-06 19:10:00,-999.0,-99.9,26.93,WNW,284,0.0,1.3,-999,0.00,,,0.00,WSDL version 420,2013-06-06 23:10:00,
2013-06-06 19:15:00,-999.0,-99.9,26.93,North,355,0.0,1.3,-999,0.00,,,0.00,WSDL version 420,2013-06-06 23:15:00,
2013-06-06 19:20:00,-999.0,-99.9,26.93,NNW,343,0.0,1.3,-999,0.00,,,0.00,WSDL version 420,2013-06-06 23:20:00,
2013-06-06 19:25:00,-999.0,-99.9,26.93,North,6,0.0,0.0,-999,0.00,,,0.00,WSDL version 420,2013-06-06 23:25:00,
2013-06-06 19:30:00,-999.0,-99.9,26.93,NNE,28,0.4,2.0,-999,0.00,,,0.00,WSDL version 420,2013-06-06 23:30:00,
2013-06-06 19:35:00,-999.0,-99.9,26.93,North,354,0.0,2.0,-999,0.00,,,0.00,WSDL version 420,2013-06-06 23:35:00,
2013-06-06 19:40:00,-999.0,-99.9,26.93,NNE,28,0.0,1.1,-999,0.00,,,0.00,WSDL version 420,2013-06-06 23:40:00,
2013-06-06 19:45:00,-999.0,-99.9,26.93,NNW,338,0.0,0.0,-999,0.00,,,0.00,WSDL version 420,2013-06-06 23:45:00,
2013-06-06 19:50:00,-999.0,-99.9,26.93,West,270,0.0,0.0,-999,0.00,,,0.00,WSDL version 420,2013-06-06 23:50:00,
2013-06-06 19:55:00,-999.0,-99.9,26.93,West,270,0.0,0.0,-999,0.00,,,0.00,WSDL version 420,2013-06-06 23:55:00,
2013-06-06 20:00:00,-999.0,-99.9,26.93,West,270,0.0,0.0,-999,0.00,,,0.00,WSDL version 420,2013-06-07 00:00:00,
2013-06-06 20:05:00,-999.0,-99.9,26.93,West,270,0.0,0.0,-999,0.00,,,0.00,WSDL version 420,2013-06-07 00:05:00,
2013-06-06 20:10:00,-999.0,-99.9,26.93,West,270,0.0,0.0,-999,0.00,,,0.00,WSDL version 420,2013-06-07 00:10:00,
2013-06-06 20:15:00,-999.0,-99.9,26.93,NNE,28,0.0,0.0,-999,0.00,,,0.00,WSDL version 420,2013-06-07 00:15:00,
2013-06-06 20:20:00,-999.0,-99.9,26.93,NNW,338,0.0,0.0,-999,0.00,,,0.00,WSDL version 420,2013-06-07 00:20:00,
2013-06-06 20:25:00,-999.0,-99.9,26.93,NNW,338,0.0,0.0,-999,0.00,,,0.00,WSDL version 420,2013-06-07 00:25:00,
2013-06-06 20:30:00,-999.0,-99.9,26.93,NNW,338,0.0,0.0,-999,0.00,,,0.00,WSDL version 420,2013-06-07 00:30:00,
2013-06-06 20:35:00,-999.0,-99.9,26.93,NNW,338,0.0,0.0,-999,0.00,,,0.00,WSDL version 420,2013-06-07 00:35:00,
2013-06-06 20:40:00,-999.0,-99.9,26.93,NNW,338,0.0,0.0,-999,0.00,,,0.00,WSDL version 420,2013-06-07 00:40:00,
2013-06-06 20:45:00,-999.0,-99.9,26.93,NNW,338,0.0,0.0,-999,0.00,,,0.00,WSDL version 420,2013-06-07 00:45:00,
2013-06-06 20:50:00,-999.0,-99.9,26.93,NNW,329,0.0,0.0,-999,0.00,,,0.00,WSDL version 420,2013-06-07 00:50:00,
2013-06-06 20:55:00,-999.0,-99.9,26.93,West,270,0.0,0.0,-999,0.00,,,0.00,WSDL version 420,2013-06-07 00:55:00,
2013-06-06 21:00:00,-999.0,-99.9,26.93,NNW,333,0.0,0.0,-999,0.00,,,0.00,WSDL version 420,2013-06-07 01:00:00,
2013-06-06 21:05:00,-999.0,-99.9,26.93,NNW,332,0.0,0.0,-999,0.00,,,0.00,WSDL version 420,2013-06-07 01:05:00,
2013-06-06 21:10:00,-999.0,-99.9,26.93,ESE,118,0.0,0.0,-999,0.00,,,0.00,WSDL version 420,2013-06-07 01:10:00,
2013-06-06 21:15:00,-999.0,-99.9,26.93,SSE,155,0.0,0.0,-999,0.00,,,0.00,WSDL version 420,2013-06-07 01:15:00,
2013-06-06 21:20:00,-999.0,-99.9,26.93,ENE,58,0.0,0.0,-999,0.00,,,0.00,WSDL version 420,2013-06-07 01:20:00,
2013-06-06 21:25:00,-999.0,-99.9,26.93,North,360,0.0,0.0,-999,0.00,,,0.00,WSDL version 420,2013-06-07 01:25:00,
2013-06-06 21:30:00,-999.0,-99.9,26.93,WSW,248,0.0,0.0,-999,0.00,,,0.00,WSDL version 420,2013-06-07 01:30:00,
2013-06-06 21:35:00,-999.0,-99.9,26.93,NNW,343,0.0,0.0,-999,0.00,,,0.00,WSDL version 420,2013-06-07 01:35:00,
2013-06-06 21:40:00,-999.0,-99.9,26.93,ENE,71,0.0,0.0,-999,0.00,,,0.00,WSDL version 420,2013-06-07 01:40:00,
2013-06-06 21:45:00,-999.0,-99.9,26.93,NW,315,0.0,0.0,-999,0.00,,,0.00,WSDL version 420,2013-06-07 01:45:00,
2013-06-06 21:50:00,-999.0,-99.9,26.93,WNW,288,0.0,0.0,-999,0.00,,,0.00,WSDL version 420,2013-06-07 01:50:00,
2013-06-06 21:55:00,-999.0,-99.9,26.93,NNW,338,0.0,0.0,-999,0.00,,,0.00,WSDL version 420,2013-06-07 01:55:00,
2013-06-06 22:00:00,-999.0,-99.9,26.93,SSE,158,0.0,0.0,-999,0.00,,,0.00,WSDL version 420,2013-06-07 02:00:00,
2013-06-06 22:05:00,-999.0,-99.9,26.93,SW,222,0.0,0.0,-999,0.00,,,0.00,WSDL version 420,2013-06-07 02:05:00,
2013-06-06 22:10:00,-999.0,-99.9,26.93,SE,132,0.0,0.0,-999,0.00,,,0.00,WSDL version 420,2013-06-07 02:10:00,
2013-06-06 22:15:00,-999.0,-99.9,26.93,ENE,68,0.0,0.0,-999,0.00,,,0.00,WSDL version 420,2013-06-07 02:15:00,
2013-06-06 22:20:00,-999.0,-99.9,26.93,NNE,28,0.0,0.0,-999,0.00,,,0.00,WSDL version 420,2013-06-07 02:20:00,
2013-06-06 22:25:00,-999.0,-99.9,26.96,NE,42,0.3,2.0,-999,0.00,,,0.00,WSDL version 420,2013-06-07 02:25:00,
2013-06-06 22:30:00,-999.0,-99.9,26.96,NNW,328,0.0,2.0,-999,0.00,,,0.00,WSDL version 420,2013-06-07 02:30:00,
2013-06-06 22:35:00,-999.0,-99.9,26.96,NNW,338,0.0,1.1,-999,0.00,,,0.00,WSDL version 420,2013-06-07 02:35:00,
2013-06-06 22:40:00,-999.0,-99.9,26.96,North,352,0.0,0.0,-999,0.00,,,0.00,WSDL version 420,2013-06-07 02:40:00,
2013-06-06 22:45:00,-999.0,-99.9,26.96,NW,323,0.3,2.2,-999,0.00,,,0.00,WSDL version 420,2013-06-07 02:45:00,
2013-06-06 22:50:00,-999.0,-99.9,26.96,North,360,0.3,2.7,-999,0.00,,,0.00,WSDL version 420,2013-06-07 02:50:00,
2013-06-06 22:55:00,-999.0,-99.9,26.93,North,350,0.0,2.7,-999,0.00,,,0.00,WSDL version 420,2013-06-07 02:55:00,
2013-06-06 23:00:00,-999.0,-99.9,26.93,North,353,0.2,2.5,-999,0.00,,,0.00,WSDL version 420,2013-06-07 03:00:00,
2013-06-06 23:05:00,-999.0,-99.9,26.93,NW,323,0.3,3.1,-999,0.00,,,0.00,WSDL version 420,2013-06-07 03:05:00,
2013-06-06 23:10:00,-999.0,-99.9,26.96,NW,323,0.0,3.1,-999,0.00,,,0.00,WSDL version 420,2013-06-07 03:10:00,
2013-06-06 23:15:00,-999.0,-99.9,26.96,NW,315,1.0,3.1,-999,0.00,,,0.00,WSDL version 420,2013-06-07 03:15:00,
2013-06-06 23:20:00,-999.0,-99.9,26.96,NNW,328,0.0,2.9,-999,0.00,,,0.00,WSDL version 420,2013-06-07 03:20:00,
2013-06-06 23:25:00,-999.0,-99.9,26.96,NNW,343,0.4,3.1,-999,0.00,,,0.00,WSDL version 420,2013-06-07 03:25:00,
2013-06-06 23:30:00,-999.0,-99.9,26.96,NNW,340,1.5,3.6,-999,0.00,,,0.00,WSDL version 420,2013-06-07 03:30:00,
2013-06-06 23:35:00,-999.0,-99.9,26.96,NNE,13,1.4,3.6,-999,0.00,,,0.00,WSDL version 420,2013-06-07 03:35:00,
2013-06-06 23:40:00,-999.0,-99.9,26.93,North,357,0.1,3.1,-999,0.00,,,0.00,WSDL version 420,2013-06-07 03:40:00,
2013-06-06 23:45:00,-999.0,-99.9,26.93,North,11,0.0,1.6,-999,0.00,,,0.00,WSDL version 420,2013-06-07 03:45:00,
2013-06-06 23:50:00,-999.0,-99.9,26.93,NE,34,0.0,0.9,-999,0.00,,,0.00,WSDL version 420,2013-06-07 03:50:00,
2013-06-06 23:55:00,-999.0,-99.9,26.93,East,90,0.0,0.0,-999,0.00,,,0.00,WSDL version 420,2013-06-07 03:55:00,